createdAt,value
2018-12-13T00:01:17.062Z,98.24
2018-12-13T00:03:45.194Z,98.27
2018-12-13T00:06:13.637Z,98.35
2018-12-13T00:08:41.812Z,98.39
2018-12-13T00:11:10.017Z,98.52
2018-12-13T00:13:38.142Z,98.31
2018-12-13T00:16:06.406Z,98.21
2018-12-13T00:18:34.582Z,98.64
2018-12-13T00:21:02.722Z,99.05
2018-12-13T00:23:30.850Z,99.04
2018-12-13T00:25:58.995Z,99.30
2018-12-13T00:28:27.109Z,99.25
2018-12-13T00:30:55.262Z,99.45
2018-12-13T00:33:23.520Z,99.96
2018-12-13T00:35:51.651Z,99.90
2018-12-13T00:38:19.861Z,99.78
2018-12-13T00:40:47.998Z,100.00
2018-12-13T00:43:16.136Z,100.00
2018-12-13T00:45:44.423Z,100.00
2018-12-13T00:48:12.698Z,100.00
2018-12-13T00:50:40.844Z,100.00
2018-12-13T00:53:08.986Z,100.00
2018-12-13T00:55:37.133Z,100.00
2018-12-13T00:58:05.455Z,100.00
2018-12-13T01:00:33.669Z,100.00
2018-12-13T01:03:01.807Z,100.00
2018-12-13T01:05:30.013Z,100.00
2018-12-13T01:07:58.138Z,100.00
2018-12-13T01:10:26.319Z,100.00
2018-12-13T01:12:54.462Z,100.00
2018-12-13T01:15:22.606Z,100.00
2018-12-13T01:17:50.758Z,100.00
2018-12-13T01:20:18.897Z,100.00
2018-12-13T01:22:47.441Z,100.00
2018-12-13T01:25:15.584Z,100.00
2018-12-13T01:27:43.812Z,100.00
2018-12-13T01:30:12.353Z,100.00
2018-12-13T01:32:40.497Z,100.00
2018-12-13T01:35:08.639Z,99.71
2018-12-13T01:37:36.774Z,99.65
2018-12-13T01:40:05.457Z,99.38
2018-12-13T01:42:33.601Z,99.89
2018-12-13T01:45:01.798Z,100.00
2018-12-13T01:47:29.953Z,100.00
2018-12-13T01:49:58.057Z,100.00
2018-12-13T01:52:26.197Z,100.00
2018-12-13T01:54:54.348Z,100.00
2018-12-13T01:57:22.490Z,100.00
2018-12-13T01:59:50.677Z,100.00
2018-12-13T02:02:18.816Z,100.00
2018-12-13T02:04:46.988Z,100.00
2018-12-13T02:07:15.133Z,100.00
2018-12-13T02:09:43.337Z,100.00
2018-12-13T02:12:11.722Z,100.00
2018-12-13T02:14:39.828Z,100.00
2018-12-13T02:17:08.001Z,100.00
2018-12-13T02:19:36.133Z,100.00
2018-12-13T02:22:04.449Z,100.00
2018-12-13T02:24:32.585Z,100.00
2018-12-13T02:27:00.877Z,100.00
2018-12-13T02:29:29.049Z,100.00
2018-12-13T02:31:57.293Z,100.00
2018-12-13T02:34:25.457Z,100.00
2018-12-13T02:36:53.670Z,100.00
2018-12-13T02:39:21.803Z,100.00
2018-12-13T02:41:50.084Z,100.00
2018-12-13T02:44:18.253Z,100.00
2018-12-13T02:46:46.405Z,100.00
2018-12-13T02:49:14.566Z,100.00
2018-12-13T02:51:42.699Z,100.00
2018-12-13T02:54:10.851Z,100.00
2018-12-13T02:56:39.755Z,100.00
2018-12-13T02:59:07.900Z,100.00
2018-12-13T03:01:36.117Z,100.00
2018-12-13T03:04:04.414Z,100.00
2018-12-13T03:06:32.562Z,100.00
2018-12-13T03:09:00.798Z,100.00
2018-12-13T03:11:29.018Z,100.00
2018-12-13T03:13:57.145Z,100.00
2018-12-13T03:16:25.286Z,100.00
2018-12-13T03:18:54.349Z,100.00
2018-12-13T03:21:22.508Z,100.00
2018-12-13T03:23:51.586Z,100.00
2018-12-13T03:26:19.812Z,100.00
2018-12-13T03:28:47.937Z,100.00
2018-12-13T03:31:16.083Z,100.00
2018-12-13T03:33:44.321Z,100.00
2018-12-13T03:36:12.678Z,100.00
2018-12-13T03:38:40.922Z,100.00
2018-12-13T03:41:09.051Z,100.00
2018-12-13T03:43:37.210Z,100.00
2018-12-13T03:46:05.527Z,100.00
2018-12-13T03:48:33.661Z,100.00
2018-12-13T03:51:01.810Z,100.00
2018-12-13T03:53:29.962Z,100.00
2018-12-13T03:55:58.158Z,100.00
2018-12-13T03:58:26.393Z,100.00
2018-12-13T04:00:54.531Z,100.00
2018-12-13T04:03:23.203Z,100.00
2018-12-13T04:05:51.325Z,100.00
2018-12-13T04:08:19.468Z,100.00
2018-12-13T04:10:47.636Z,100.00
2018-12-13T04:13:15.808Z,100.00
2018-12-13T04:15:44.052Z,100.00
2018-12-13T04:18:12.306Z,100.00
2018-12-13T04:20:40.502Z,100.00
2018-12-13T04:23:08.837Z,100.00
2018-12-13T04:25:36.991Z,100.00
2018-12-13T04:28:05.234Z,100.00
2018-12-13T04:30:33.406Z,100.00
2018-12-13T04:33:01.603Z,100.00
2018-12-13T04:35:29.799Z,100.00
2018-12-13T04:37:57.965Z,100.00
2018-12-13T04:40:26.122Z,100.00
2018-12-13T04:42:54.587Z,100.00
2018-12-13T04:45:22.796Z,100.00
2018-12-13T04:47:50.954Z,100.00
2018-12-13T04:50:19.093Z,100.00
2018-12-13T04:52:47.244Z,100.00
2018-12-13T04:55:15.466Z,100.00
2018-12-13T04:57:43.594Z,100.00
2018-12-13T05:00:11.912Z,100.00
2018-12-13T05:02:40.138Z,100.00
2018-12-13T05:05:08.277Z,100.00
2018-12-13T05:07:41.689Z,100.00
2018-12-13T05:10:06.906Z,100.00
2018-12-13T05:12:35.058Z,100.00
2018-12-13T05:15:03.454Z,100.00
2018-12-13T05:17:31.610Z,100.00
2018-12-13T05:19:59.746Z,100.00
2018-12-13T05:22:27.890Z,100.00
2018-12-13T05:24:56.134Z,100.00
2018-12-13T05:27:24.308Z,100.00
2018-12-13T05:29:52.521Z,100.00
2018-12-13T05:32:20.745Z,100.00
2018-12-13T05:34:48.871Z,100.00
2018-12-13T05:37:17.013Z,100.00
2018-12-13T05:39:45.127Z,100.00
2018-12-13T05:42:13.289Z,100.00
2018-12-13T05:44:41.429Z,100.00
2018-12-13T05:47:09.568Z,99.98
2018-12-13T05:49:37.800Z,100.00
2018-12-13T05:52:05.958Z,99.71
2018-12-13T05:54:34.124Z,99.03
2018-12-13T05:57:02.267Z,98.80
2018-12-13T05:59:30.388Z,99.06
2018-12-13T06:01:58.521Z,99.04
2018-12-13T06:04:26.641Z,98.96
2018-12-13T06:06:54.773Z,98.66
2018-12-13T06:09:22.910Z,98.38
2018-12-13T06:11:51.106Z,98.74
2018-12-13T06:14:19.238Z,98.11
2018-12-13T06:16:47.369Z,98.20
2018-12-13T06:19:15.498Z,98.25
2018-12-13T06:21:43.658Z,98.34
2018-12-13T06:24:11.827Z,97.13
2018-12-13T06:26:40.008Z,97.97
2018-12-13T06:29:08.225Z,97.79
2018-12-13T06:31:36.352Z,96.83
2018-12-13T06:34:04.513Z,97.05
2018-12-13T06:36:32.833Z,97.18
2018-12-13T06:39:01.300Z,96.91
2018-12-13T06:41:29.525Z,96.78
2018-12-13T06:43:57.702Z,96.51
2018-12-13T06:46:25.921Z,96.81
2018-12-13T06:48:54.358Z,96.77
2018-12-13T06:51:22.490Z,96.49
2018-12-13T06:53:50.645Z,96.54
2018-12-13T06:56:18.819Z,96.77
2018-12-13T06:58:47.066Z,95.97
2018-12-13T07:01:15.419Z,96.43
2018-12-13T07:03:43.575Z,96.49
2018-12-13T07:06:11.774Z,97.01
2018-12-13T07:08:39.918Z,96.72
2018-12-13T07:11:08.050Z,97.18
2018-12-13T07:13:36.207Z,97.16
2018-12-13T07:16:04.422Z,97.22
2018-12-13T07:18:32.641Z,97.10
2018-12-13T07:21:01.451Z,97.02
2018-12-13T07:23:29.724Z,96.95
2018-12-13T07:25:57.853Z,96.94
2018-12-13T07:28:26.194Z,96.77
2018-12-13T07:30:54.318Z,96.85
2018-12-13T07:33:22.586Z,97.17
2018-12-13T07:35:50.740Z,98.16
2018-12-13T07:38:18.855Z,98.33
2018-12-13T07:40:46.982Z,98.38
2018-12-13T07:43:15.206Z,98.40
2018-12-13T07:45:43.358Z,98.61
2018-12-13T07:48:11.485Z,98.23
2018-12-13T07:50:39.600Z,97.50
2018-12-13T07:53:07.750Z,97.66
2018-12-13T07:55:35.864Z,97.48
2018-12-13T07:58:04.017Z,96.60
2018-12-13T08:00:33.136Z,96.14
2018-12-13T08:03:01.265Z,95.52
2018-12-13T08:05:29.427Z,95.49
2018-12-13T08:07:57.702Z,95.80
2018-12-13T08:10:25.892Z,94.59
2018-12-13T08:12:54.337Z,94.90
2018-12-13T08:15:22.489Z,94.65
2018-12-13T08:17:50.630Z,94.85
2018-12-13T08:20:18.941Z,94.53
2018-12-13T08:22:47.057Z,94.87
2018-12-13T08:25:15.313Z,94.53
2018-12-13T08:27:43.535Z,94.04
2018-12-13T08:30:11.886Z,93.83
2018-12-13T08:32:40.101Z,94.05
2018-12-13T08:35:08.342Z,93.84
2018-12-13T08:37:37.129Z,93.81
2018-12-13T08:40:06.425Z,93.89
2018-12-13T08:42:34.574Z,93.75
2018-12-13T08:45:02.738Z,93.42
2018-12-13T08:47:30.878Z,93.42
2018-12-13T08:49:59.194Z,93.10
2018-12-13T08:52:27.327Z,92.83
2018-12-13T08:54:55.477Z,91.93
2018-12-13T08:57:23.720Z,91.33
2018-12-13T08:59:52.021Z,90.58
2018-12-13T09:02:20.150Z,90.90
2018-12-13T09:04:48.322Z,90.95
2018-12-13T09:07:16.429Z,90.96
2018-12-13T09:09:44.578Z,90.48
2018-12-13T09:12:12.885Z,90.70
2018-12-13T09:14:41.105Z,89.98
2018-12-13T09:17:09.350Z,90.32
2018-12-13T09:19:37.470Z,89.94
2018-12-13T09:22:05.613Z,89.71
2018-12-13T09:24:33.821Z,89.46
2018-12-13T09:27:02.033Z,88.97
2018-12-13T09:29:30.210Z,88.59
2018-12-13T09:31:58.342Z,87.91
2018-12-13T09:34:26.649Z,88.77
2018-12-13T09:36:54.866Z,89.21
2018-12-13T09:39:23.013Z,89.13
2018-12-13T09:41:51.254Z,88.02
2018-12-13T09:44:19.520Z,88.36
2018-12-13T09:46:47.725Z,87.41
2018-12-13T09:49:16.056Z,88.54
2018-12-13T09:51:44.220Z,87.95
2018-12-13T09:54:12.717Z,87.60
2018-12-13T09:56:40.907Z,87.93
2018-12-13T09:59:09.044Z,87.61
2018-12-13T10:01:37.390Z,87.95
2018-12-13T10:04:05.701Z,87.53
2018-12-13T10:06:33.841Z,87.49
2018-12-13T10:09:02.241Z,87.69
2018-12-13T10:11:30.584Z,86.71
2018-12-13T10:13:58.729Z,87.08
2018-12-13T10:16:26.883Z,87.30
2018-12-13T10:18:55.323Z,87.55
2018-12-13T10:21:23.481Z,86.88
2018-12-13T10:23:51.720Z,86.42
2018-12-13T10:26:19.842Z,86.75
2018-12-13T10:28:47.980Z,86.57
2018-12-13T10:31:16.324Z,85.45
2018-12-13T10:33:44.462Z,86.15
2018-12-13T10:36:12.819Z,85.51
2018-12-13T10:38:41.106Z,84.10
2018-12-13T10:41:09.612Z,84.21
2018-12-13T10:43:37.848Z,84.29
2018-12-13T10:46:06.202Z,84.11
2018-12-13T10:48:34.456Z,84.25
2018-12-13T10:51:02.607Z,84.49
2018-12-13T10:53:30.769Z,84.54
2018-12-13T10:55:59.002Z,84.51
2018-12-13T10:58:27.177Z,83.97
2018-12-13T11:01:00.770Z,84.49
2018-12-13T11:03:34.394Z,85.11
2018-12-13T11:06:02.638Z,84.54
2018-12-13T11:08:30.791Z,84.42
2018-12-13T11:10:58.950Z,84.29
2018-12-13T11:13:27.208Z,84.42
2018-12-13T11:15:55.553Z,84.62
2018-12-13T11:18:23.753Z,84.11
2018-12-13T11:20:51.906Z,83.80
2018-12-13T11:23:20.047Z,83.94
2018-12-13T11:25:48.258Z,84.63
2018-12-13T11:29:32.763Z,83.62
2018-12-13T11:32:00.929Z,83.34
2018-12-13T11:34:29.155Z,84.02
2018-12-13T11:36:57.292Z,83.53
2018-12-13T11:39:25.450Z,82.80
2018-12-13T11:41:53.702Z,82.46
2018-12-13T11:44:21.939Z,81.46
2018-12-13T11:46:50.383Z,80.75
2018-12-13T11:49:18.495Z,81.45
2018-12-13T11:51:46.835Z,81.35
2018-12-13T11:54:28.540Z,81.60
2018-12-13T11:56:56.795Z,81.60
2018-12-13T11:59:25.018Z,81.57
2018-12-13T12:01:53.210Z,80.96
2018-12-13T12:04:21.365Z,81.20
2018-12-13T12:06:49.501Z,81.12
2018-12-13T12:09:17.616Z,80.38
2018-12-13T12:11:45.831Z,81.39
2018-12-13T12:14:14.129Z,80.62
2018-12-13T12:16:42.625Z,81.20
2018-12-13T12:19:10.883Z,81.75
2018-12-13T12:21:39.189Z,82.37
2018-12-13T12:24:07.434Z,81.35
2018-12-13T12:26:35.614Z,80.84
2018-12-13T12:29:03.937Z,80.50
2018-12-13T12:31:32.082Z,81.51
2018-12-13T12:34:00.343Z,81.26
2018-12-13T12:36:28.574Z,82.90
2018-12-13T12:38:56.695Z,81.57
2018-12-13T12:41:25.061Z,81.73
2018-12-13T12:43:53.267Z,81.86
2018-12-13T12:46:21.529Z,82.77
2018-12-13T12:48:49.700Z,82.25
2018-12-13T12:51:17.853Z,83.11
2018-12-13T12:53:46.144Z,83.86
2018-12-13T12:56:14.299Z,83.64
2018-12-13T12:58:42.600Z,84.07
2018-12-13T13:01:10.774Z,82.86
2018-12-13T13:03:38.933Z,84.69
2018-12-13T13:06:07.313Z,84.71
2018-12-13T13:08:35.562Z,84.18
2018-12-13T13:11:03.741Z,84.52
2018-12-13T13:13:31.920Z,83.58
2018-12-13T13:16:00.134Z,83.61
2018-12-13T13:18:28.405Z,83.45
2018-12-13T13:20:56.691Z,84.13
2018-12-13T13:23:25.443Z,83.03
2018-12-13T13:25:53.619Z,83.98
2018-12-13T13:28:21.911Z,84.85
2018-12-13T13:30:50.100Z,85.55
2018-12-13T13:33:18.302Z,84.97
2018-12-13T13:35:46.550Z,84.75
2018-12-13T13:38:15.315Z,84.24
2018-12-13T13:40:43.613Z,84.62
2018-12-13T13:43:11.780Z,84.00
2018-12-13T13:45:39.942Z,84.23
2018-12-13T13:48:08.141Z,82.92
2018-12-13T13:50:36.270Z,82.59
2018-12-13T13:53:04.547Z,83.10
2018-12-13T13:55:32.868Z,81.36
2018-12-13T13:58:01.071Z,81.54
2018-12-13T14:00:29.260Z,81.14
2018-12-13T14:02:57.678Z,79.64
2018-12-13T14:05:25.877Z,79.97
2018-12-13T14:07:54.106Z,78.86
2018-12-13T14:10:22.393Z,77.58
2018-12-13T14:12:50.606Z,78.81
2018-12-13T14:15:19.097Z,78.82
2018-12-13T14:17:47.275Z,78.15
2018-12-13T14:20:15.463Z,78.28
2018-12-13T14:22:44.268Z,77.37
2018-12-13T14:25:12.732Z,78.03
2018-12-13T14:27:40.905Z,77.46
2018-12-13T14:30:09.322Z,77.55
2018-12-13T14:32:37.513Z,76.41
2018-12-13T14:35:06.370Z,77.52
2018-12-13T14:37:34.545Z,77.31
2018-12-13T14:40:02.942Z,76.64
2018-12-13T14:42:31.138Z,75.74
2018-12-13T14:44:59.451Z,76.84
2018-12-13T14:47:27.586Z,76.79
2018-12-13T14:49:55.729Z,76.73
2018-12-13T14:52:24.035Z,77.38
2018-12-13T14:54:52.435Z,77.94
2018-12-13T14:57:20.851Z,78.09
2018-12-13T14:59:48.993Z,78.57
2018-12-13T15:02:18.376Z,77.89
2018-12-13T15:04:46.626Z,77.81
2018-12-13T15:07:14.926Z,78.46
2018-12-13T15:09:43.145Z,79.71
2018-12-13T15:12:11.326Z,79.65
2018-12-13T15:14:39.766Z,78.80
2018-12-13T15:17:07.938Z,78.88
2018-12-13T15:19:36.097Z,79.83
2018-12-13T15:22:04.312Z,80.13
2018-12-13T15:24:32.586Z,78.73
2018-12-13T15:27:00.834Z,77.74
2018-12-13T15:29:29.046Z,78.49
2018-12-13T15:31:59.613Z,78.79
2018-12-13T15:34:27.666Z,78.27
2018-12-13T15:36:55.974Z,78.74
2018-12-13T15:39:24.117Z,77.35
2018-12-13T15:41:52.429Z,77.06
2018-12-13T15:44:20.743Z,77.78
2018-12-13T15:48:55.590Z,77.34
2018-12-13T15:51:23.950Z,78.29
2018-12-13T15:53:52.120Z,78.31
2018-12-13T15:56:20.507Z,78.75
2018-12-13T15:58:48.802Z,78.61
2018-12-13T16:01:17.198Z,79.32
2018-12-13T16:03:45.575Z,78.91
2018-12-13T16:06:13.793Z,79.38
2018-12-13T16:08:41.987Z,79.42
2018-12-13T16:11:10.185Z,79.50
2018-12-13T16:13:38.314Z,79.68
2018-12-13T16:16:06.535Z,79.95
2018-12-13T16:18:34.691Z,79.76
2018-12-13T16:21:03.062Z,79.71
2018-12-13T16:23:31.653Z,80.36
2018-12-13T16:25:59.843Z,81.08
2018-12-13T16:28:28.039Z,81.38
2018-12-13T16:30:56.174Z,80.58
2018-12-13T16:33:24.345Z,80.81
2018-12-13T16:35:52.501Z,81.51
2018-12-13T16:38:20.654Z,80.95
2018-12-13T16:40:48.884Z,81.18
2018-12-13T16:43:17.070Z,80.70
2018-12-13T16:45:45.212Z,80.42
2018-12-13T16:48:13.375Z,80.86
2018-12-13T16:50:41.629Z,80.44
2018-12-13T16:53:09.772Z,81.20
2018-12-13T16:55:37.922Z,80.62
2018-12-13T16:58:06.216Z,80.76
2018-12-13T17:00:34.350Z,79.96
2018-12-13T17:03:12.687Z,79.95
2018-12-13T17:05:40.807Z,80.43
2018-12-13T17:08:08.957Z,79.93
2018-12-13T17:10:37.211Z,80.50
2018-12-13T17:13:05.347Z,80.19
2018-12-13T17:15:33.483Z,80.13
2018-12-13T17:18:01.685Z,79.70
2018-12-13T17:20:29.827Z,80.03
2018-12-13T17:22:57.982Z,80.34
2018-12-13T17:25:26.122Z,79.48
2018-12-13T17:27:54.267Z,78.91
2018-12-13T17:30:22.504Z,78.84
2018-12-13T17:32:50.717Z,78.42
2018-12-13T17:35:19.034Z,78.97
2018-12-13T17:37:47.173Z,79.84
2018-12-13T17:40:15.347Z,80.23
2018-12-13T17:42:43.994Z,80.80
2018-12-13T17:45:12.121Z,80.41
2018-12-13T17:47:40.554Z,80.37
2018-12-13T17:50:08.773Z,79.83
2018-12-13T17:52:36.978Z,80.35
2018-12-13T17:55:05.321Z,80.21
2018-12-13T17:57:33.472Z,80.24
2018-12-13T18:00:01.702Z,79.52
2018-12-13T18:02:29.820Z,79.34
2018-12-13T18:04:57.949Z,79.15
2018-12-13T18:07:26.097Z,79.17
2018-12-13T18:09:54.245Z,78.78
2018-12-13T18:12:23.328Z,79.11
2018-12-13T18:14:51.486Z,79.62
2018-12-13T18:17:19.631Z,79.96
2018-12-13T18:19:47.951Z,80.04
2018-12-13T18:22:16.090Z,79.27
2018-12-13T18:24:44.222Z,79.23
2018-12-13T18:27:12.393Z,79.09
2018-12-13T18:29:40.541Z,79.43
2018-12-13T18:32:08.925Z,79.78
2018-12-13T18:34:37.069Z,79.04
2018-12-13T18:37:05.350Z,78.88
2018-12-13T18:39:33.486Z,78.78
2018-12-13T18:42:01.642Z,78.66
2018-12-13T18:44:29.774Z,78.61
2018-12-13T18:46:58.004Z,79.11
2018-12-13T18:49:27.002Z,78.20
2018-12-13T18:51:55.201Z,76.84
2018-12-13T18:54:23.355Z,77.24
2018-12-13T18:56:51.582Z,77.45
2018-12-13T18:59:19.740Z,77.29
2018-12-13T19:01:47.868Z,76.75
2018-12-13T19:04:15.992Z,76.92
2018-12-13T19:06:44.131Z,77.10
2018-12-13T19:09:12.296Z,76.73
2018-12-13T19:11:40.462Z,77.65
2018-12-13T19:14:08.638Z,76.98
2018-12-13T19:16:36.865Z,77.03
2018-12-13T19:19:05.094Z,77.71
2018-12-13T19:21:33.222Z,77.72
2018-12-13T19:24:01.402Z,77.38
2018-12-13T19:26:29.541Z,77.48
2018-12-13T19:28:58.473Z,76.93
2018-12-13T19:31:26.601Z,76.76
2018-12-13T19:33:54.736Z,76.92
2018-12-13T19:36:23.084Z,77.60
2018-12-13T19:38:51.198Z,77.70
2018-12-13T19:41:19.321Z,77.96
2018-12-13T19:43:47.450Z,76.79
2018-12-13T19:46:15.697Z,77.15
2018-12-13T19:48:43.880Z,78.00
2018-12-13T19:51:12.033Z,77.51
2018-12-13T19:53:40.252Z,77.16
2018-12-13T19:56:08.569Z,77.33
2018-12-13T19:58:36.702Z,77.37
2018-12-13T20:01:04.919Z,77.37
2018-12-13T20:03:33.166Z,77.31
2018-12-13T20:06:01.300Z,77.14
2018-12-13T20:08:30.299Z,77.19
2018-12-13T20:10:58.440Z,77.53
2018-12-13T20:13:26.633Z,76.80
2018-12-13T20:15:54.779Z,76.78
2018-12-13T20:18:22.919Z,76.21
2018-12-13T20:20:51.125Z,76.00
2018-12-13T20:23:19.259Z,76.06
2018-12-13T20:25:47.396Z,76.36
2018-12-13T20:28:15.566Z,76.02
2018-12-13T20:30:43.902Z,76.59
2018-12-13T20:33:12.054Z,77.21
2018-12-13T20:35:40.211Z,76.90
2018-12-13T20:38:08.366Z,76.84
2018-12-13T20:40:36.604Z,76.57
2018-12-13T20:43:04.855Z,76.15
2018-12-13T20:45:33.135Z,76.46
2018-12-13T20:48:02.018Z,76.19
2018-12-13T20:50:30.177Z,76.52
2018-12-13T20:52:58.325Z,75.68
2018-12-13T20:55:26.465Z,76.96
2018-12-13T20:58:08.813Z,77.44
2018-12-13T21:00:36.963Z,77.50
2018-12-13T21:03:05.218Z,77.37
2018-12-13T21:05:33.433Z,76.87
2018-12-13T21:08:07.076Z,77.41
2018-12-13T21:10:35.290Z,77.67
2018-12-13T21:13:03.655Z,77.43
2018-12-13T21:15:31.912Z,77.17
2018-12-13T21:18:00.129Z,76.91
2018-12-13T21:20:28.262Z,76.55
2018-12-13T21:22:56.519Z,77.05
2018-12-13T21:25:24.726Z,76.52
2018-12-13T21:27:52.975Z,77.05
2018-12-13T21:30:21.145Z,76.84
2018-12-13T21:32:49.313Z,76.80
2018-12-13T21:35:17.564Z,76.71
2018-12-13T21:37:45.719Z,77.07
2018-12-13T21:40:14.025Z,77.27
2018-12-13T21:42:42.270Z,77.42
2018-12-13T21:45:10.585Z,77.28
2018-12-13T21:47:38.734Z,77.20
2018-12-13T21:50:08.096Z,77.64
2018-12-13T21:52:36.254Z,77.96
2018-12-13T21:55:05.142Z,78.44
2018-12-13T21:57:33.379Z,77.84
2018-12-13T22:02:40.851Z,77.87
2018-12-13T22:05:09.023Z,78.38
2018-12-13T22:07:37.166Z,78.59
2018-12-13T22:10:06.373Z,79.18
2018-12-13T22:12:35.098Z,79.34
2018-12-13T22:15:03.316Z,78.94
2018-12-13T22:17:31.462Z,79.16
2018-12-13T22:19:59.661Z,79.64
2018-12-13T22:22:27.839Z,79.15
2018-12-13T22:24:55.973Z,79.00
2018-12-13T22:27:24.186Z,79.24
2018-12-13T22:29:52.328Z,78.73
2018-12-13T22:32:20.504Z,78.74
2018-12-13T22:34:49.197Z,78.57
2018-12-13T22:37:17.622Z,79.80
2018-12-13T22:39:45.777Z,79.97
2018-12-13T22:42:14.057Z,79.49
2018-12-13T22:44:42.249Z,79.29
2018-12-13T22:47:10.402Z,79.44
2018-12-13T22:49:38.521Z,79.58
2018-12-13T22:52:06.661Z,79.81
2018-12-13T22:54:34.800Z,79.67
2018-12-13T22:57:02.990Z,79.90
2018-12-13T22:59:31.242Z,79.58
2018-12-13T23:01:59.565Z,79.87
2018-12-13T23:04:27.896Z,80.27
2018-12-13T23:06:56.130Z,79.01
2018-12-13T23:09:24.268Z,78.79
2018-12-13T23:11:52.409Z,78.85
2018-12-13T23:14:20.542Z,78.53
2018-12-13T23:16:48.669Z,78.82
2018-12-13T23:19:16.986Z,78.68
2018-12-13T23:21:45.129Z,79.13
2018-12-13T23:24:13.276Z,79.71
2018-12-13T23:26:41.620Z,78.43
2018-12-13T23:29:09.768Z,78.63
2018-12-13T23:31:37.958Z,78.74
2018-12-13T23:34:06.193Z,78.22
2018-12-13T23:36:34.499Z,78.59
2018-12-13T23:39:02.687Z,78.53
2018-12-13T23:41:30.802Z,78.55
2018-12-13T23:43:59.042Z,77.94
2018-12-13T23:46:27.270Z,78.91
2018-12-13T23:48:55.410Z,78.99
2018-12-13T23:51:23.693Z,78.38
2018-12-13T23:53:51.882Z,79.40
2018-12-13T23:56:20.218Z,78.65
2018-12-13T23:58:48.639Z,78.63
